sensor_id;sensor_type;location;lat;lon;timestamp;temperature;humidity
15328;DHT22;7764;51.430;6.840;2024-02-04T00:00:25;11.00;99.90
15328;DHT22;7764;51.430;6.840;2024-02-04T00:02:51;11.00;99.90
15328;DHT22;7764;51.430;6.840;2024-02-04T00:05:19;11.00;99.90
15328;DHT22;7764;51.430;6.840;2024-02-04T00:07:46;11.00;99.90
15328;DHT22;7764;51.430;6.840;2024-02-04T00:10:13;11.00;99.90
15328;DHT22;7764;51.430;6.840;2024-02-04T00:12:41;11.00;99.90
15328;DHT22;7764;51.430;6.840;2024-02-04T00:15:09;11.00;99.90
15328;DHT22;7764;51.430;6.840;2024-02-04T00:17:36;11.00;99.90
15328;DHT22;7764;51.430;6.840;2024-02-04T00:20:03;11.00;99.90
15328;DHT22;7764;51.430;6.840;2024-02-04T00:22:33;11.00;99.90
15328;DHT22;7764;51.430;6.840;2024-02-04T00:25:00;11.00;99.90
15328;DHT22;7764;51.430;6.840;2024-02-04T00:27:30;11.00;99.90
15328;DHT22;7764;51.430;6.840;2024-02-04T00:29:57;11.00;99.90
15328;DHT22;7764;51.430;6.840;2024-02-04T00:32:24;10.90;99.90
15328;DHT22;7764;51.430;6.840;2024-02-04T00:34:51;10.90;99.90
15328;DHT22;7764;51.430;6.840;2024-02-04T00:37:18;10.90;99.90
15328;DHT22;7764;51.430;6.840;2024-02-04T00:39:46;10.90;99.90
15328;DHT22;7764;51.430;6.840;2024-02-04T00:42:13;10.90;99.90
15328;DHT22;7764;51.430;6.840;2024-02-04T00:44:40;10.90;99.90
15328;DHT22;7764;51.430;6.840;2024-02-04T00:47:06;10.90;99.90
15328;DHT22;7764;51.430;6.840;2024-02-04T00:49:33;10.90;99.90
15328;DHT22;7764;51.430;6.840;2024-02-04T00:52:00;10.90;99.90
15328;DHT22;7764;51.430;6.840;2024-02-04T00:54:27;10.90;99.90
15328;DHT22;7764;51.430;6.840;2024-02-04T00:56:55;10.90;99.90
15328;DHT22;7764;51.430;6.840;2024-02-04T00:59:23;11.00;99.90
15328;DHT22;7764;51.430;6.840;2024-02-04T01:01:49;10.90;99.90
15328;DHT22;7764;51.430;6.840;2024-02-04T01:04:16;10.90;99.90
15328;DHT22;7764;51.430;6.840;2024-02-04T01:06:43;10.90;99.90
15328;DHT22;7764;51.430;6.840;2024-02-04T01:09:10;10.90;99.90
15328;DHT22;7764;51.430;6.840;2024-02-04T01:11:37;10.90;99.90
15328;DHT22;7764;51.430;6.840;2024-02-04T01:14:05;10.90;99.90
15328;DHT22;7764;51.430;6.840;2024-02-04T01:16:32;10.90;99.90
15328;DHT22;7764;51.430;6.840;2024-02-04T01:18:58;10.90;99.90
15328;DHT22;7764;51.430;6.840;2024-02-04T01:21:25;10.90;99.90
15328;DHT22;7764;51.430;6.840;2024-02-04T01:23:53;10.90;99.90
15328;DHT22;7764;51.430;6.840;2024-02-04T01:26:20;10.90;99.90
15328;DHT22;7764;51.430;6.840;2024-02-04T01:28:49;10.90;99.90
15328;DHT22;7764;51.430;6.840;2024-02-04T01:31:17;10.90;99.90
15328;DHT22;7764;51.430;6.840;2024-02-04T01:33:44;10.90;99.90
15328;DHT22;7764;51.430;6.840;2024-02-04T01:36:10;10.90;99.90
15328;DHT22;7764;51.430;6.840;2024-02-04T01:38:37;10.90;99.90
15328;DHT22;7764;51.430;6.840;2024-02-04T01:41:04;10.90;99.90
15328;DHT22;7764;51.430;6.840;2024-02-04T01:43:31;10.90;99.90
15328;DHT22;7764;51.430;6.840;2024-02-04T01:45:57;10.90;99.90
15328;DHT22;7764;51.430;6.840;2024-02-04T01:48:26;10.90;99.90
15328;DHT22;7764;51.430;6.840;2024-02-04T01:50:54;10.90;99.90
15328;DHT22;7764;51.430;6.840;2024-02-04T01:53:22;10.90;99.90
15328;DHT22;7764;51.430;6.840;2024-02-04T01:55:49;10.90;99.90
15328;DHT22;7764;51.430;6.840;2024-02-04T01:58:16;10.90;99.90
15328;DHT22;7764;51.430;6.840;2024-02-04T02:00:44;10.90;99.90
15328;DHT22;7764;51.430;6.840;2024-02-04T02:03:12;10.90;99.90
15328;DHT22;7764;51.430;6.840;2024-02-04T02:05:41;10.90;99.90
15328;DHT22;7764;51.430;6.840;2024-02-04T02:08:08;10.90;99.90
15328;DHT22;7764;51.430;6.840;2024-02-04T02:10:37;10.90;99.90
15328;DHT22;7764;51.430;6.840;2024-02-04T02:13:09;10.90;99.90
15328;DHT22;7764;51.430;6.840;2024-02-04T02:15:42;10.90;99.90
15328;DHT22;7764;51.430;6.840;2024-02-04T02:18:13;10.90;99.90
15328;DHT22;7764;51.430;6.840;2024-02-04T02:20:54;10.90;99.90
15328;DHT22;7764;51.430;6.840;2024-02-04T02:23:22;10.90;99.90
15328;DHT22;7764;51.430;6.840;2024-02-04T02:25:56;10.90;99.90
15328;DHT22;7764;51.430;6.840;2024-02-04T02:28:23;10.90;99.90
15328;DHT22;7764;51.430;6.840;2024-02-04T02:30:50;10.90;99.90
15328;DHT22;7764;51.430;6.840;2024-02-04T02:33:17;10.90;99.90
15328;DHT22;7764;51.430;6.840;2024-02-04T02:35:45;10.90;99.90
15328;DHT22;7764;51.430;6.840;2024-02-04T02:38:19;10.90;99.90
15328;DHT22;7764;51.430;6.840;2024-02-04T02:40:49;10.90;99.90
15328;DHT22;7764;51.430;6.840;2024-02-04T02:43:19;10.90;99.90
15328;DHT22;7764;51.430;6.840;2024-02-04T02:45:47;10.90;99.90
15328;DHT22;7764;51.430;6.840;2024-02-04T02:48:14;10.90;99.90
15328;DHT22;7764;51.430;6.840;2024-02-04T02:50:43;10.90;99.90
15328;DHT22;7764;51.430;6.840;2024-02-04T02:53:10;10.90;99.90
15328;DHT22;7764;51.430;6.840;2024-02-04T02:55:37;11.00;99.90
15328;DHT22;7764;51.430;6.840;2024-02-04T02:58:03;11.00;99.90
15328;DHT22;7764;51.430;6.840;2024-02-04T03:00:31;11.00;99.90
15328;DHT22;7764;51.430;6.840;2024-02-04T03:02:58;10.90;99.90
15328;DHT22;7764;51.430;6.840;2024-02-04T03:05:25;10.90;99.90
15328;DHT22;7764;51.430;6.840;2024-02-04T03:07:52;11.00;99.90
15328;DHT22;7764;51.430;6.840;2024-02-04T03:10:19;11.00;99.90
15328;DHT22;7764;51.430;6.840;2024-02-04T03:12:45;11.00;99.90
15328;DHT22;7764;51.430;6.840;2024-02-04T03:15:12;11.00;99.90
15328;DHT22;7764;51.430;6.840;2024-02-04T03:17:42;11.00;99.90
15328;DHT22;7764;51.430;6.840;2024-02-04T03:20:10;11.00;99.90
15328;DHT22;7764;51.430;6.840;2024-02-04T03:22:37;11.00;99.90
15328;DHT22;7764;51.430;6.840;2024-02-04T03:25:04;11.00;99.90
15328;DHT22;7764;51.430;6.840;2024-02-04T03:27:32;11.00;99.90
15328;DHT22;7764;51.430;6.840;2024-02-04T03:29:58;11.00;99.90
15328;DHT22;7764;51.430;6.840;2024-02-04T03:32:26;11.00;99.90
15328;DHT22;7764;51.430;6.840;2024-02-04T03:34:56;11.00;99.90
15328;DHT22;7764;51.430;6.840;2024-02-04T03:37:22;11.00;99.90
15328;DHT22;7764;51.430;6.840;2024-02-04T03:39:49;11.00;99.90
15328;DHT22;7764;51.430;6.840;2024-02-04T03:42:16;11.10;99.90
15328;DHT22;7764;51.430;6.840;2024-02-04T03:44:43;11.00;99.90
15328;DHT22;7764;51.430;6.840;2024-02-04T03:47:10;11.00;99.90
15328;DHT22;7764;51.430;6.840;2024-02-04T03:49:37;11.00;99.90
15328;DHT22;7764;51.430;6.840;2024-02-04T03:52:05;11.00;99.90
15328;DHT22;7764;51.430;6.840;2024-02-04T03:54:32;11.00;99.90
15328;DHT22;7764;51.430;6.840;2024-02-04T03:56:59;11.00;99.90
15328;DHT22;7764;51.430;6.840;2024-02-04T03:59:26;11.00;99.90
15328;DHT22;7764;51.430;6.840;2024-02-04T04:01:52;11.00;99.90
15328;DHT22;7764;51.430;6.840;2024-02-04T04:04:20;11.00;99.90
15328;DHT22;7764;51.430;6.840;2024-02-04T04:06:48;11.10;99.90
15328;DHT22;7764;51.430;6.840;2024-02-04T04:09:16;11.10;99.90
15328;DHT22;7764;51.430;6.840;2024-02-04T04:11:43;11.10;99.90
15328;DHT22;7764;51.430;6.840;2024-02-04T04:14:10;11.10;99.90
15328;DHT22;7764;51.430;6.840;2024-02-04T04:16:37;11.10;99.90
15328;DHT22;7764;51.430;6.840;2024-02-04T04:19:03;11.10;99.90
15328;DHT22;7764;51.430;6.840;2024-02-04T04:21:30;11.10;99.90
15328;DHT22;7764;51.430;6.840;2024-02-04T04:23:57;11.10;99.90
15328;DHT22;7764;51.430;6.840;2024-02-04T04:26:25;11.10;99.90
15328;DHT22;7764;51.430;6.840;2024-02-04T04:28:52;11.10;99.90
15328;DHT22;7764;51.430;6.840;2024-02-04T04:31:19;11.10;99.90
15328;DHT22;7764;51.430;6.840;2024-02-04T04:33:45;11.10;99.90
15328;DHT22;7764;51.430;6.840;2024-02-04T04:36:12;11.00;99.90
15328;DHT22;7764;51.430;6.840;2024-02-04T04:38:39;11.10;99.90
15328;DHT22;7764;51.430;6.840;2024-02-04T04:41:06;11.10;99.90
15328;DHT22;7764;51.430;6.840;2024-02-04T04:43:36;11.10;99.90
15328;DHT22;7764;51.430;6.840;2024-02-04T04:46:03;11.10;99.90
15328;DHT22;7764;51.430;6.840;2024-02-04T04:48:30;11.10;99.90
15328;DHT22;7764;51.430;6.840;2024-02-04T04:50:57;11.10;99.90
15328;DHT22;7764;51.430;6.840;2024-02-04T04:53:24;11.10;99.90
15328;DHT22;7764;51.430;6.840;2024-02-04T04:55:51;11.10;99.90
15328;DHT22;7764;51.430;6.840;2024-02-04T04:58:17;11.10;99.90
15328;DHT22;7764;51.430;6.840;2024-02-04T05:00:45;11.10;99.90
15328;DHT22;7764;51.430;6.840;2024-02-04T05:03:12;11.10;99.90
15328;DHT22;7764;51.430;6.840;2024-02-04T05:05:39;11.10;99.90
15328;DHT22;7764;51.430;6.840;2024-02-04T05:08:06;11.10;99.90
15328;DHT22;7764;51.430;6.840;2024-02-04T05:10:33;11.10;99.90
15328;DHT22;7764;51.430;6.840;2024-02-04T05:13:00;11.10;99.90
15328;DHT22;7764;51.430;6.840;2024-02-04T05:15:27;11.10;99.90
15328;DHT22;7764;51.430;6.840;2024-02-04T05:17:56;11.10;99.90
15328;DHT22;7764;51.430;6.840;2024-02-04T05:20:23;11.10;99.90
15328;DHT22;7764;51.430;6.840;2024-02-04T05:22:50;11.10;99.90
15328;DHT22;7764;51.430;6.840;2024-02-04T05:25:17;11.10;99.90
15328;DHT22;7764;51.430;6.840;2024-02-04T05:27:44;11.10;99.90
15328;DHT22;7764;51.430;6.840;2024-02-04T05:30:11;11.10;99.90
15328;DHT22;7764;51.430;6.840;2024-02-04T05:32:38;11.00;99.90
15328;DHT22;7764;51.430;6.840;2024-02-04T05:35:07;11.10;99.90
15328;DHT22;7764;51.430;6.840;2024-02-04T05:37:34;11.10;99.90
15328;DHT22;7764;51.430;6.840;2024-02-04T05:40:01;11.10;99.90
15328;DHT22;7764;51.430;6.840;2024-02-04T05:42:31;11.10;99.90
15328;DHT22;7764;51.430;6.840;2024-02-04T05:44:58;11.10;99.90
15328;DHT22;7764;51.430;6.840;2024-02-04T05:47:25;11.10;99.90
15328;DHT22;7764;51.430;6.840;2024-02-04T05:49:51;11.10;99.90
15328;DHT22;7764;51.430;6.840;2024-02-04T05:52:20;11.10;99.90
15328;DHT22;7764;51.430;6.840;2024-02-04T05:54:46;11.10;99.90
15328;DHT22;7764;51.430;6.840;2024-02-04T05:57:13;11.10;99.90
15328;DHT22;7764;51.430;6.840;2024-02-04T05:59:41;11.10;99.90
15328;DHT22;7764;51.430;6.840;2024-02-04T06:02:07;11.10;99.90
15328;DHT22;7764;51.430;6.840;2024-02-04T06:04:34;11.10;99.90
15328;DHT22;7764;51.430;6.840;2024-02-04T06:07:02;11.20;99.90
15328;DHT22;7764;51.430;6.840;2024-02-04T06:09:31;11.20;99.90
15328;DHT22;7764;51.430;6.840;2024-02-04T06:11:58;11.20;99.90
15328;DHT22;7764;51.430;6.840;2024-02-04T06:14:25;11.20;99.90
15328;DHT22;7764;51.430;6.840;2024-02-04T06:16:51;11.20;99.90
15328;DHT22;7764;51.430;6.840;2024-02-04T06:19:18;11.20;99.90
15328;DHT22;7764;51.430;6.840;2024-02-04T06:21:45;11.20;99.90
15328;DHT22;7764;51.430;6.840;2024-02-04T06:24:12;11.20;99.90
15328;DHT22;7764;51.430;6.840;2024-02-04T06:26:40;11.20;99.90
15328;DHT22;7764;51.430;6.840;2024-02-04T06:29:07;11.20;99.90
15328;DHT22;7764;51.430;6.840;2024-02-04T06:31:34;11.20;99.90
15328;DHT22;7764;51.430;6.840;2024-02-04T06:34:01;11.20;99.90
15328;DHT22;7764;51.430;6.840;2024-02-04T06:36:27;11.20;99.90
15328;DHT22;7764;51.430;6.840;2024-02-04T06:38:54;11.20;99.90
15328;DHT22;7764;51.430;6.840;2024-02-04T06:41:20;11.20;99.90
15328;DHT22;7764;51.430;6.840;2024-02-04T06:43:48;11.10;99.90
15328;DHT22;7764;51.430;6.840;2024-02-04T06:46:24;11.10;99.90
15328;DHT22;7764;51.430;6.840;2024-02-04T06:48:50;11.10;99.90
15328;DHT22;7764;51.430;6.840;2024-02-04T06:51:17;11.10;99.90
15328;DHT22;7764;51.430;6.840;2024-02-04T06:53:44;11.10;99.90
15328;DHT22;7764;51.430;6.840;2024-02-04T06:56:11;11.10;99.90
15328;DHT22;7764;51.430;6.840;2024-02-04T06:58:38;11.10;99.90
15328;DHT22;7764;51.430;6.840;2024-02-04T07:01:06;11.10;99.90
15328;DHT22;7764;51.430;6.840;2024-02-04T07:03:33;11.10;99.90
15328;DHT22;7764;51.430;6.840;2024-02-04T07:06:00;11.10;99.90
15328;DHT22;7764;51.430;6.840;2024-02-04T07:08:27;11.10;99.90
15328;DHT22;7764;51.430;6.840;2024-02-04T07:10:54;11.10;99.90
15328;DHT22;7764;51.430;6.840;2024-02-04T07:13:21;11.10;99.90
15328;DHT22;7764;51.430;6.840;2024-02-04T07:15:48;11.10;99.90
15328;DHT22;7764;51.430;6.840;2024-02-04T07:18:16;11.10;99.90
15328;DHT22;7764;51.430;6.840;2024-02-04T07:20:47;11.10;99.90
15328;DHT22;7764;51.430;6.840;2024-02-04T07:23:14;11.10;99.90
15328;DHT22;7764;51.430;6.840;2024-02-04T07:25:41;11.10;99.90
15328;DHT22;7764;51.430;6.840;2024-02-04T07:28:08;11.10;99.90
15328;DHT22;7764;51.430;6.840;2024-02-04T07:30:35;11.10;99.90
15328;DHT22;7764;51.430;6.840;2024-02-04T07:33:02;11.10;99.90
15328;DHT22;7764;51.430;6.840;2024-02-04T07:35:30;11.10;99.90
15328;DHT22;7764;51.430;6.840;2024-02-04T07:37:57;11.10;99.90
15328;DHT22;7764;51.430;6.840;2024-02-04T07:40:24;11.10;99.90
15328;DHT22;7764;51.430;6.840;2024-02-04T07:42:50;11.10;99.90
15328;DHT22;7764;51.430;6.840;2024-02-04T07:45:18;11.10;99.90
15328;DHT22;7764;51.430;6.840;2024-02-04T07:47:45;11.10;99.90
15328;DHT22;7764;51.430;6.840;2024-02-04T07:50:12;11.10;99.90
15328;DHT22;7764;51.430;6.840;2024-02-04T07:52:40;11.10;99.90
15328;DHT22;7764;51.430;6.840;2024-02-04T07:55:07;11.10;99.90
15328;DHT22;7764;51.430;6.840;2024-02-04T07:57:34;11.00;99.90
15328;DHT22;7764;51.430;6.840;2024-02-04T08:00:01;11.10;99.90
15328;DHT22;7764;51.430;6.840;2024-02-04T08:02:30;11.10;99.90
15328;DHT22;7764;51.430;6.840;2024-02-04T08:04:57;11.10;99.90
15328;DHT22;7764;51.430;6.840;2024-02-04T08:07:24;11.00;99.90
15328;DHT22;7764;51.430;6.840;2024-02-04T08:09:52;11.00;99.90
15328;DHT22;7764;51.430;6.840;2024-02-04T08:12:19;11.00;99.90
15328;DHT22;7764;51.430;6.840;2024-02-04T08:14:45;11.00;99.90
15328;DHT22;7764;51.430;6.840;2024-02-04T08:17:12;11.00;99.90
15328;DHT22;7764;51.430;6.840;2024-02-04T08:19:39;11.00;99.90
15328;DHT22;7764;51.430;6.840;2024-02-04T08:22:06;11.00;99.90
15328;DHT22;7764;51.430;6.840;2024-02-04T08:24:34;11.00;99.90
15328;DHT22;7764;51.430;6.840;2024-02-04T08:27:03;11.00;99.90
15328;DHT22;7764;51.430;6.840;2024-02-04T08:29:30;11.00;99.90
15328;DHT22;7764;51.430;6.840;2024-02-04T08:31:57;11.00;99.90
15328;DHT22;7764;51.430;6.840;2024-02-04T08:34:24;11.00;99.90
15328;DHT22;7764;51.430;6.840;2024-02-04T08:36:51;11.00;99.90
15328;DHT22;7764;51.430;6.840;2024-02-04T08:39:18;11.00;99.90
15328;DHT22;7764;51.430;6.840;2024-02-04T08:41:45;11.00;99.90
15328;DHT22;7764;51.430;6.840;2024-02-04T08:44:13;11.00;99.90
15328;DHT22;7764;51.430;6.840;2024-02-04T08:46:40;11.00;99.90
15328;DHT22;7764;51.430;6.840;2024-02-04T08:49:07;11.00;99.90
15328;DHT22;7764;51.430;6.840;2024-02-04T08:51:33;11.00;99.90
15328;DHT22;7764;51.430;6.840;2024-02-04T08:54:00;11.00;99.90
15328;DHT22;7764;51.430;6.840;2024-02-04T08:56:27;11.00;99.90
15328;DHT22;7764;51.430;6.840;2024-02-04T08:58:54;11.00;99.90
15328;DHT22;7764;51.430;6.840;2024-02-04T09:01:22;11.00;99.90
15328;DHT22;7764;51.430;6.840;2024-02-04T09:03:49;11.10;99.90
15328;DHT22;7764;51.430;6.840;2024-02-04T09:06:16;11.00;99.90
15328;DHT22;7764;51.430;6.840;2024-02-04T09:08:43;11.00;99.90
15328;DHT22;7764;51.430;6.840;2024-02-04T09:11:10;11.00;99.90
15328;DHT22;7764;51.430;6.840;2024-02-04T09:13:38;11.00;99.90
15328;DHT22;7764;51.430;6.840;2024-02-04T09:16:05;11.10;99.90
15328;DHT22;7764;51.430;6.840;2024-02-04T09:18:33;11.10;99.90
15328;DHT22;7764;51.430;6.840;2024-02-04T09:21:00;11.10;99.90
15328;DHT22;7764;51.430;6.840;2024-02-04T09:23:27;11.10;99.90
15328;DHT22;7764;51.430;6.840;2024-02-04T09:25:54;11.10;99.90
15328;DHT22;7764;51.430;6.840;2024-02-04T09:28:21;11.10;99.90
15328;DHT22;7764;51.430;6.840;2024-02-04T09:30:48;11.20;99.90
15328;DHT22;7764;51.430;6.840;2024-02-04T09:33:14;11.20;99.90
15328;DHT22;7764;51.430;6.840;2024-02-04T09:35:43;11.30;99.90
15328;DHT22;7764;51.430;6.840;2024-02-04T09:38:10;11.30;99.90
15328;DHT22;7764;51.430;6.840;2024-02-04T09:40:37;11.40;99.90
15328;DHT22;7764;51.430;6.840;2024-02-04T09:43:04;11.40;99.90
15328;DHT22;7764;51.430;6.840;2024-02-04T09:45:31;11.40;99.90
15328;DHT22;7764;51.430;6.840;2024-02-04T09:48:00;11.40;99.90
15328;DHT22;7764;51.430;6.840;2024-02-04T09:50:27;11.40;99.90
15328;DHT22;7764;51.430;6.840;2024-02-04T09:52:59;11.40;99.90
15328;DHT22;7764;51.430;6.840;2024-02-04T09:55:27;11.40;99.90
15328;DHT22;7764;51.430;6.840;2024-02-04T09:57:55;11.40;99.90
15328;DHT22;7764;51.430;6.840;2024-02-04T10:00:22;11.40;99.90
15328;DHT22;7764;51.430;6.840;2024-02-04T10:02:50;11.40;99.90
15328;DHT22;7764;51.430;6.840;2024-02-04T10:05:16;11.30;99.90
15328;DHT22;7764;51.430;6.840;2024-02-04T10:07:43;11.30;99.90
15328;DHT22;7764;51.430;6.840;2024-02-04T10:10:12;11.30;99.90
15328;DHT22;7764;51.430;6.840;2024-02-04T10:12:39;11.30;99.90
15328;DHT22;7764;51.430;6.840;2024-02-04T10:15:07;11.30;99.90
15328;DHT22;7764;51.430;6.840;2024-02-04T10:17:34;11.30;99.90
15328;DHT22;7764;51.430;6.840;2024-02-04T10:20:01;11.40;99.90
15328;DHT22;7764;51.430;6.840;2024-02-04T10:22:29;11.40;99.90
15328;DHT22;7764;51.430;6.840;2024-02-04T10:25:05;11.50;99.90
15328;DHT22;7764;51.430;6.840;2024-02-04T10:27:34;11.50;99.90
15328;DHT22;7764;51.430;6.840;2024-02-04T10:30:01;11.60;99.90
15328;DHT22;7764;51.430;6.840;2024-02-04T10:32:28;11.70;99.90
15328;DHT22;7764;51.430;6.840;2024-02-04T10:34:55;11.70;99.90
15328;DHT22;7764;51.430;6.840;2024-02-04T10:37:22;11.80;99.90
15328;DHT22;7764;51.430;6.840;2024-02-04T10:39:48;11.70;99.90
15328;DHT22;7764;51.430;6.840;2024-02-04T10:42:17;11.70;99.90
15328;DHT22;7764;51.430;6.840;2024-02-04T10:44:51;11.70;99.90
15328;DHT22;7764;51.430;6.840;2024-02-04T10:47:22;11.80;99.90
15328;DHT22;7764;51.430;6.840;2024-02-04T10:49:51;11.90;99.90
15328;DHT22;7764;51.430;6.840;2024-02-04T10:52:19;11.90;99.90
15328;DHT22;7764;51.430;6.840;2024-02-04T10:54:48;11.90;99.90
15328;DHT22;7764;51.430;6.840;2024-02-04T10:57:20;11.90;99.90
15328;DHT22;7764;51.430;6.840;2024-02-04T10:59:49;11.90;99.90
15328;DHT22;7764;51.430;6.840;2024-02-04T11:02:19;11.90;99.90
15328;DHT22;7764;51.430;6.840;2024-02-04T11:04:48;11.90;99.90
15328;DHT22;7764;51.430;6.840;2024-02-04T11:07:17;11.90;99.90
15328;DHT22;7764;51.430;6.840;2024-02-04T11:09:46;11.70;99.90
15328;DHT22;7764;51.430;6.840;2024-02-04T11:12:18;11.60;99.90
15328;DHT22;7764;51.430;6.840;2024-02-04T11:14:48;11.60;99.90
15328;DHT22;7764;51.430;6.840;2024-02-04T11:20:28;11.60;99.90
15328;DHT22;7764;51.430;6.840;2024-02-04T11:23:15;11.60;99.90
15328;DHT22;7764;51.430;6.840;2024-02-04T11:25:48;11.70;99.90
15328;DHT22;7764;51.430;6.840;2024-02-04T11:28:16;11.60;99.90
15328;DHT22;7764;51.430;6.840;2024-02-04T11:30:45;11.60;99.90
15328;DHT22;7764;51.430;6.840;2024-02-04T11:33:17;11.60;99.90
15328;DHT22;7764;51.430;6.840;2024-02-04T11:35:45;11.60;99.90
15328;DHT22;7764;51.430;6.840;2024-02-04T11:38:12;11.60;99.90
15328;DHT22;7764;51.430;6.840;2024-02-04T11:40:45;11.70;99.90
15328;DHT22;7764;51.430;6.840;2024-02-04T11:43:14;11.60;99.90
15328;DHT22;7764;51.430;6.840;2024-02-04T11:45:42;11.60;99.90
15328;DHT22;7764;51.430;6.840;2024-02-04T11:48:10;11.60;99.90
15328;DHT22;7764;51.430;6.840;2024-02-04T11:50:39;11.60;99.90
15328;DHT22;7764;51.430;6.840;2024-02-04T11:53:08;11.60;99.90
15328;DHT22;7764;51.430;6.840;2024-02-04T11:55:35;11.60;99.90
15328;DHT22;7764;51.430;6.840;2024-02-04T11:58:04;11.60;99.90
15328;DHT22;7764;51.430;6.840;2024-02-04T12:00:32;11.70;99.90
15328;DHT22;7764;51.430;6.840;2024-02-04T12:03:00;11.70;99.90
15328;DHT22;7764;51.430;6.840;2024-02-04T12:05:28;11.70;99.90
15328;DHT22;7764;51.430;6.840;2024-02-04T12:07:57;11.70;99.90
15328;DHT22;7764;51.430;6.840;2024-02-04T12:10:24;11.70;99.90
15328;DHT22;7764;51.430;6.840;2024-02-04T12:12:52;11.80;99.90
15328;DHT22;7764;51.430;6.840;2024-02-04T12:15:19;11.80;99.90
15328;DHT22;7764;51.430;6.840;2024-02-04T12:17:46;11.80;99.90
15328;DHT22;7764;51.430;6.840;2024-02-04T12:20:13;11.80;99.90
15328;DHT22;7764;51.430;6.840;2024-02-04T12:22:40;11.80;99.90
15328;DHT22;7764;51.430;6.840;2024-02-04T12:25:08;11.80;99.90
15328;DHT22;7764;51.430;6.840;2024-02-04T12:27:36;11.90;99.90
15328;DHT22;7764;51.430;6.840;2024-02-04T12:30:04;11.90;99.90
15328;DHT22;7764;51.430;6.840;2024-02-04T12:32:32;11.90;99.90
15328;DHT22;7764;51.430;6.840;2024-02-04T12:34:59;11.90;99.90
15328;DHT22;7764;51.430;6.840;2024-02-04T12:37:26;11.90;99.90
15328;DHT22;7764;51.430;6.840;2024-02-04T12:39:54;12.00;99.90
15328;DHT22;7764;51.430;6.840;2024-02-04T12:42:23;12.00;99.90
15328;DHT22;7764;51.430;6.840;2024-02-04T12:44:51;12.00;99.90
15328;DHT22;7764;51.430;6.840;2024-02-04T12:47:19;12.00;99.90
15328;DHT22;7764;51.430;6.840;2024-02-04T12:49:46;12.00;99.90
15328;DHT22;7764;51.430;6.840;2024-02-04T12:52:13;11.90;99.90
15328;DHT22;7764;51.430;6.840;2024-02-04T12:54:40;11.90;99.90
15328;DHT22;7764;51.430;6.840;2024-02-04T12:57:08;11.90;99.90
15328;DHT22;7764;51.430;6.840;2024-02-04T12:59:38;11.80;99.90
15328;DHT22;7764;51.430;6.840;2024-02-04T13:02:07;11.80;99.90
15328;DHT22;7764;51.430;6.840;2024-02-04T13:04:35;11.90;99.90
15328;DHT22;7764;51.430;6.840;2024-02-04T13:07:05;11.90;99.90
15328;DHT22;7764;51.430;6.840;2024-02-04T13:09:33;11.80;99.90
15328;DHT22;7764;51.430;6.840;2024-02-04T13:12:03;11.80;99.90
15328;DHT22;7764;51.430;6.840;2024-02-04T13:14:30;11.80;99.90
15328;DHT22;7764;51.430;6.840;2024-02-04T13:16:58;11.80;99.90
15328;DHT22;7764;51.430;6.840;2024-02-04T13:19:32;11.80;99.90
15328;DHT22;7764;51.430;6.840;2024-02-04T13:21:59;11.90;99.90
15328;DHT22;7764;51.430;6.840;2024-02-04T13:24:26;11.90;99.90
15328;DHT22;7764;51.430;6.840;2024-02-04T13:26:53;11.80;99.90
15328;DHT22;7764;51.430;6.840;2024-02-04T13:29:19;11.80;99.90
15328;DHT22;7764;51.430;6.840;2024-02-04T13:31:46;11.80;99.90
15328;DHT22;7764;51.430;6.840;2024-02-04T13:34:15;11.90;99.90
15328;DHT22;7764;51.430;6.840;2024-02-04T13:36:42;11.90;99.90
15328;DHT22;7764;51.430;6.840;2024-02-04T13:39:09;11.80;99.90
15328;DHT22;7764;51.430;6.840;2024-02-04T13:41:38;11.80;99.90
15328;DHT22;7764;51.430;6.840;2024-02-04T13:44:04;11.80;99.90
15328;DHT22;7764;51.430;6.840;2024-02-04T13:46:31;11.80;99.90
15328;DHT22;7764;51.430;6.840;2024-02-04T13:48:58;11.80;99.90
15328;DHT22;7764;51.430;6.840;2024-02-04T13:51:27;11.80;99.90
15328;DHT22;7764;51.430;6.840;2024-02-04T13:53:54;11.80;99.90
15328;DHT22;7764;51.430;6.840;2024-02-04T13:56:20;11.80;99.90
15328;DHT22;7764;51.430;6.840;2024-02-04T13:58:47;11.70;99.90
15328;DHT22;7764;51.430;6.840;2024-02-04T14:01:14;11.70;99.90
15328;DHT22;7764;51.430;6.840;2024-02-04T14:03:41;11.70;99.90
15328;DHT22;7764;51.430;6.840;2024-02-04T14:06:08;11.70;99.90
15328;DHT22;7764;51.430;6.840;2024-02-04T14:08:36;11.70;99.90
15328;DHT22;7764;51.430;6.840;2024-02-04T14:11:03;11.60;99.90
15328;DHT22;7764;51.430;6.840;2024-02-04T14:13:30;11.70;99.90
15328;DHT22;7764;51.430;6.840;2024-02-04T14:15:58;11.70;99.90
15328;DHT22;7764;51.430;6.840;2024-02-04T14:18:25;11.70;99.90
15328;DHT22;7764;51.430;6.840;2024-02-04T14:20:52;11.70;99.90
15328;DHT22;7764;51.430;6.840;2024-02-04T14:23:18;11.70;99.90
15328;DHT22;7764;51.430;6.840;2024-02-04T14:25:47;11.70;99.90
15328;DHT22;7764;51.430;6.840;2024-02-04T14:28:13;11.70;99.90
15328;DHT22;7764;51.430;6.840;2024-02-04T14:30:41;11.70;99.90
15328;DHT22;7764;51.430;6.840;2024-02-04T14:33:08;11.70;99.90
15328;DHT22;7764;51.430;6.840;2024-02-04T14:35:35;11.70;99.90
15328;DHT22;7764;51.430;6.840;2024-02-04T14:38:02;11.80;99.90
15328;DHT22;7764;51.430;6.840;2024-02-04T14:40:29;11.80;99.90
15328;DHT22;7764;51.430;6.840;2024-02-04T14:42:57;11.80;99.90
15328;DHT22;7764;51.430;6.840;2024-02-04T14:45:24;11.80;99.90
15328;DHT22;7764;51.430;6.840;2024-02-04T14:47:51;11.80;99.90
15328;DHT22;7764;51.430;6.840;2024-02-04T14:50:18;11.80;99.90
15328;DHT22;7764;51.430;6.840;2024-02-04T14:52:46;11.80;99.90
15328;DHT22;7764;51.430;6.840;2024-02-04T14:55:13;11.80;99.90
15328;DHT22;7764;51.430;6.840;2024-02-04T14:57:39;11.80;99.90
15328;DHT22;7764;51.430;6.840;2024-02-04T15:00:09;11.80;99.90
15328;DHT22;7764;51.430;6.840;2024-02-04T15:02:36;11.80;99.90
15328;DHT22;7764;51.430;6.840;2024-02-04T15:05:04;11.80;99.90
15328;DHT22;7764;51.430;6.840;2024-02-04T15:07:33;11.80;99.90
15328;DHT22;7764;51.430;6.840;2024-02-04T15:09:59;11.80;99.90
15328;DHT22;7764;51.430;6.840;2024-02-04T15:12:27;11.80;99.90
15328;DHT22;7764;51.430;6.840;2024-02-04T15:14:54;11.80;99.90
15328;DHT22;7764;51.430;6.840;2024-02-04T15:17:25;11.80;99.90
15328;DHT22;7764;51.430;6.840;2024-02-04T15:19:52;11.70;99.90
15328;DHT22;7764;51.430;6.840;2024-02-04T15:22:19;11.80;99.90
15328;DHT22;7764;51.430;6.840;2024-02-04T15:24:47;11.80;99.90
15328;DHT22;7764;51.430;6.840;2024-02-04T15:27:14;11.80;99.90
15328;DHT22;7764;51.430;6.840;2024-02-04T15:29:42;11.80;99.90
15328;DHT22;7764;51.430;6.840;2024-02-04T15:32:10;11.90;99.90
15328;DHT22;7764;51.430;6.840;2024-02-04T15:34:40;11.90;99.90
15328;DHT22;7764;51.430;6.840;2024-02-04T15:37:07;11.90;99.90
15328;DHT22;7764;51.430;6.840;2024-02-04T15:39:35;11.90;99.90
15328;DHT22;7764;51.430;6.840;2024-02-04T15:42:03;11.90;99.90
15328;DHT22;7764;51.430;6.840;2024-02-04T15:44:30;11.90;99.90
15328;DHT22;7764;51.430;6.840;2024-02-04T15:46:59;11.90;99.90
15328;DHT22;7764;51.430;6.840;2024-02-04T15:49:28;11.80;99.90